createdAt,value
2023-02-02T15:45:48.468Z,7.00
2023-02-02T15:46:48.489Z,7.40
2023-02-02T15:47:48.376Z,7.40
2023-02-02T15:48:48.361Z,8.80
2023-02-02T15:49:48.322Z,9.30
2023-02-02T15:50:48.339Z,9.20
2023-02-02T15:51:48.333Z,10.20
2023-02-02T15:52:48.293Z,9.50
2023-02-02T15:53:48.227Z,8.50
2023-02-02T15:54:48.194Z,9.40
2023-02-02T15:55:48.166Z,8.50
2023-02-02T15:56:48.139Z,7.80
2023-02-02T15:57:48.104Z,8.20
2023-02-02T15:58:48.079Z,7.60
2023-02-02T15:59:48.056Z,8.30
2023-02-02T16:00:48.080Z,8.00
2023-02-02T16:01:48.092Z,8.20
2023-02-02T16:02:47.986Z,7.50
2023-02-02T16:03:47.998Z,8.30
2023-02-02T16:04:47.939Z,8.80
2023-02-02T16:05:47.973Z,8.70
2023-02-02T16:06:47.902Z,8.80
2023-02-02T16:07:59.713Z,8.00
2023-02-02T16:08:47.871Z,8.40
2023-02-02T16:09:47.817Z,7.90
2023-02-02T16:10:47.760Z,8.60
2023-02-02T16:11:47.915Z,9.00
2023-02-02T16:12:47.751Z,9.00
2023-02-02T16:13:47.727Z,9.00
2023-02-02T16:14:47.648Z,8.80
2023-02-02T16:15:47.617Z,8.50
2023-02-02T16:16:47.755Z,8.90
2023-02-02T16:17:47.645Z,9.60
2023-02-02T16:18:47.518Z,9.50
2023-02-02T16:19:47.489Z,9.10
2023-02-02T16:20:47.479Z,9.40
2023-02-02T16:21:47.451Z,9.40
2023-02-02T16:22:47.409Z,8.80
2023-02-02T16:23:47.385Z,9.40
2023-02-02T16:24:47.364Z,9.20
2023-02-02T16:25:47.322Z,9.10
2023-02-02T16:26:47.335Z,12.90
2023-02-02T16:27:47.263Z,10.20
2023-02-02T16:28:47.238Z,9.40
2023-02-02T16:29:47.209Z,9.40
2023-02-02T16:30:47.229Z,9.70
2023-02-02T16:31:47.229Z,10.10
2023-02-02T16:32:47.127Z,10.00
2023-02-02T16:33:47.130Z,9.60
2023-02-02T16:34:47.375Z,10.00
2023-02-02T16:35:47.047Z,10.30
2023-02-02T16:36:47.016Z,10.20
2023-02-02T16:37:46.988Z,10.60
2023-02-02T16:38:46.959Z,10.40
2023-02-02T16:39:46.999Z,10.70
2023-02-02T16:40:46.906Z,10.30
2023-02-02T16:41:46.909Z,10.60
2023-02-02T16:42:46.861Z,10.20
2023-02-02T16:43:46.826Z,9.90
2023-02-02T16:44:46.795Z,10.10
2023-02-02T16:45:46.809Z,10.50
2023-02-02T16:46:46.766Z,10.20
2023-02-02T16:47:46.812Z,11.00
2023-02-02T16:48:46.689Z,11.40
2023-02-02T16:49:46.694Z,10.90
2023-02-02T16:50:46.627Z,11.00
2023-02-02T16:51:46.602Z,11.00
2023-02-02T16:52:46.571Z,12.30
2023-02-02T16:53:46.548Z,11.70
2023-02-02T16:54:46.529Z,12.20
2023-02-02T16:55:50.939Z,11.90
2023-02-02T16:56:46.467Z,11.50
2023-02-02T16:57:46.434Z,12.00
2023-02-02T16:58:46.560Z,11.40
2023-02-02T16:59:46.391Z,11.90
2023-02-02T17:00:46.372Z,12.60
2023-02-02T17:01:46.446Z,13.00
2023-02-02T17:02:46.362Z,13.80
2023-02-02T17:03:46.271Z,13.10
2023-02-02T17:04:46.239Z,12.30
2023-02-02T17:05:46.239Z,12.10
2023-02-02T17:06:52.902Z,14.30
2023-02-02T17:07:46.159Z,13.90
2023-02-02T17:08:46.129Z,13.90
2023-02-02T17:09:46.106Z,11.90
2023-02-02T17:10:46.076Z,12.10
2023-02-02T17:11:46.050Z,12.40
2023-02-02T17:12:46.027Z,11.40
2023-02-02T17:13:45.995Z,12.00
2023-02-02T17:14:45.962Z,12.70
2023-02-02T17:15:45.938Z,13.20
2023-02-02T17:16:45.986Z,13.00
2023-02-02T17:17:45.883Z,12.70
2023-02-02T17:18:45.881Z,13.20
2023-02-02T17:19:45.831Z,12.90
2023-02-02T17:20:45.797Z,13.30
2023-02-02T17:21:45.790Z,14.80
2023-02-02T17:22:45.751Z,13.70
2023-02-02T17:23:45.715Z,12.30
2023-02-02T17:24:45.749Z,14.30
2023-02-02T17:25:45.669Z,15.20
2023-02-02T17:26:45.687Z,16.50
2023-02-02T17:27:45.611Z,14.40
2023-02-02T17:28:45.578Z,15.60
2023-02-02T17:29:45.559Z,14.60
2023-02-02T17:30:45.713Z,15.20
2023-02-02T17:31:45.695Z,15.60
2023-02-02T17:32:45.495Z,15.60
2023-02-02T17:33:45.437Z,14.80
2023-02-02T17:34:45.413Z,15.00
2023-02-02T17:35:54.476Z,15.20
2023-02-02T17:36:45.353Z,14.00
2023-02-02T17:37:45.347Z,14.00
2023-02-02T17:38:45.301Z,15.70
2023-02-02T17:39:45.293Z,18.90
2023-02-02T17:40:45.243Z,14.70
2023-02-02T17:41:45.230Z,16.70
2023-02-02T17:42:45.190Z,16.60
2023-02-02T17:43:45.166Z,14.60
2023-02-02T17:44:45.141Z,16.10
2023-02-02T17:45:45.247Z,15.80
2023-02-02T17:46:45.085Z,15.80
2023-02-02T17:47:45.070Z,17.80
2023-02-02T17:48:45.027Z,15.70
2023-02-02T17:49:45.093Z,15.00
2023-02-02T17:50:45.024Z,15.20
2023-02-02T17:51:45.149Z,14.30
2023-02-02T17:52:45.005Z,14.60
2023-02-02T17:53:44.929Z,14.30
2023-02-02T17:54:44.861Z,15.80
2023-02-02T17:55:44.833Z,15.20
2023-02-02T17:56:44.800Z,14.90
2023-02-02T17:57:47.151Z,19.50
2023-02-02T17:58:44.748Z,19.00
2023-02-02T17:59:44.719Z,15.90
2023-02-02T18:00:44.693Z,14.30
2023-02-02T18:01:44.720Z,14.60
2023-02-02T18:02:44.687Z,13.80
2023-02-02T18:03:44.612Z,14.60
2023-02-02T18:04:45.753Z,13.80
2023-02-02T18:05:44.557Z,13.40
2023-02-02T18:06:44.526Z,13.60
2023-02-02T18:07:44.505Z,13.40
2023-02-02T18:08:44.471Z,13.80
2023-02-02T18:09:44.472Z,13.50
2023-02-02T18:10:44.418Z,13.40
2023-02-02T18:11:44.397Z,12.60
2023-02-02T18:12:44.366Z,13.30
2023-02-02T18:13:44.337Z,12.40
2023-02-02T18:14:44.324Z,13.40
2023-02-02T18:15:44.359Z,14.60
2023-02-02T18:16:44.254Z,11.70
2023-02-02T18:17:44.228Z,12.70
2023-02-02T18:18:44.199Z,13.80
2023-02-02T18:19:44.168Z,13.50
2023-02-02T18:20:44.139Z,12.50
2023-02-02T18:21:44.120Z,11.10
2023-02-02T18:22:44.101Z,11.20
2023-02-02T18:23:44.060Z,12.40
2023-02-02T18:24:44.030Z,11.80
2023-02-02T18:25:44.024Z,12.70
2023-02-02T18:26:44.001Z,12.20
2023-02-02T18:27:43.958Z,13.10
2023-02-02T18:28:43.919Z,13.00
2023-02-02T18:29:43.895Z,10.40
2023-02-02T18:30:43.987Z,10.70
2023-02-02T18:31:43.956Z,10.70
2023-02-02T18:32:43.897Z,10.00
2023-02-02T18:33:43.785Z,10.70
2023-02-02T18:34:43.753Z,9.70
2023-02-02T18:35:43.736Z,10.20
2023-02-02T18:36:43.697Z,11.20
2023-02-02T18:37:43.673Z,10.60
2023-02-02T18:38:43.645Z,10.50
2023-02-02T18:39:43.700Z,9.70
2023-02-02T18:40:43.644Z,9.80
2023-02-02T18:41:43.599Z,10.20
2023-02-02T18:42:43.532Z,11.80
2023-02-02T18:43:43.509Z,10.70
2023-02-02T18:44:43.478Z,10.80
2023-02-02T18:45:43.451Z,10.20
2023-02-02T18:46:43.490Z,11.40
2023-02-02T18:47:43.407Z,11.90
2023-02-02T18:48:43.378Z,11.80
2023-02-02T18:49:43.339Z,11.10
2023-02-02T18:50:43.313Z,11.70
2023-02-02T18:51:43.284Z,12.00
2023-02-02T18:52:43.258Z,12.20
2023-02-02T18:53:43.241Z,12.70
2023-02-02T18:54:43.371Z,16.30
2023-02-02T18:55:43.179Z,14.90
2023-02-02T18:56:43.156Z,15.20
2023-02-02T18:57:43.143Z,16.00
2023-02-02T18:58:43.099Z,15.80
2023-02-02T18:59:43.063Z,17.10
2023-02-02T19:00:43.031Z,17.20
2023-02-02T19:01:43.035Z,16.30
2023-02-02T19:02:42.977Z,16.60
2023-02-02T19:03:42.964Z,16.50
2023-02-02T19:04:42.922Z,16.20
2023-02-02T19:05:42.899Z,16.50
2023-02-02T19:06:42.868Z,16.80
2023-02-02T19:07:42.839Z,16.60
2023-02-02T19:08:42.828Z,19.50
2023-02-02T19:09:42.789Z,23.20
2023-02-02T19:10:42.761Z,18.90
2023-02-02T19:11:42.731Z,18.30
2023-02-02T19:12:42.702Z,19.40
2023-02-02T19:13:42.694Z,17.80
2023-02-02T19:14:42.648Z,17.80
2023-02-02T19:15:42.764Z,17.90
2023-02-02T19:16:42.593Z,18.50
2023-02-02T19:17:42.579Z,17.50
2023-02-02T19:18:42.537Z,18.60
2023-02-02T19:19:42.511Z,18.90
2023-02-02T19:20:42.486Z,18.70
2023-02-02T19:21:42.481Z,18.30
2023-02-02T19:22:42.430Z,19.40
2023-02-02T19:23:42.401Z,19.60
2023-02-02T19:24:42.376Z,18.70
2023-02-02T19:25:42.349Z,19.10
2023-02-02T19:26:42.372Z,20.20
2023-02-02T19:27:42.292Z,19.80
2023-02-02T19:28:42.262Z,20.40
2023-02-02T19:29:42.264Z,20.10
2023-02-02T19:30:42.259Z,20.00
2023-02-02T19:31:42.291Z,20.20
2023-02-02T19:32:42.150Z,21.80
2023-02-02T19:33:42.141Z,21.00
2023-02-02T19:34:42.100Z,20.60
2023-02-02T19:35:42.073Z,22.00
2023-02-02T19:36:42.044Z,21.40
2023-02-02T19:37:42.011Z,22.00
2023-02-02T19:38:42.016Z,21.60
2023-02-02T19:39:41.971Z,22.10
2023-02-02T19:40:41.936Z,21.90
2023-02-02T19:41:41.922Z,23.40
2023-02-02T19:42:41.874Z,22.80
2023-02-02T19:43:41.850Z,25.20
2023-02-02T19:44:41.824Z,23.00
2023-02-02T19:45:41.814Z,21.50
2023-02-02T19:46:41.810Z,21.40
2023-02-02T19:47:41.739Z,21.60
2023-02-02T19:48:41.709Z,22.10
2023-02-02T19:49:41.693Z,23.60
2023-02-02T19:50:41.663Z,22.60
2023-02-02T19:51:41.629Z,24.00
2023-02-02T19:52:41.604Z,22.80
2023-02-02T19:53:41.577Z,22.50
2023-02-02T19:54:41.576Z,24.00
2023-02-02T19:55:41.517Z,23.70
2023-02-02T19:56:41.491Z,23.90
2023-02-02T19:57:41.463Z,23.20
2023-02-02T19:58:41.449Z,24.00
2023-02-02T19:59:41.424Z,24.70
2023-02-02T20:00:41.474Z,23.30
2023-02-02T20:01:41.385Z,22.90
2023-02-02T20:02:41.386Z,25.90
2023-02-02T20:03:41.297Z,24.60
2023-02-02T20:04:41.269Z,25.30
2023-02-02T20:05:41.244Z,24.60
2023-02-02T20:06:56.677Z,24.70
2023-02-02T20:07:41.188Z,24.00
2023-02-02T20:08:41.161Z,23.30
2023-02-02T20:09:41.137Z,24.30
2023-02-02T20:10:41.129Z,25.00
2023-02-02T20:11:41.080Z,23.50
2023-02-02T20:12:41.077Z,24.70
2023-02-02T20:13:41.024Z,24.40
2023-02-02T20:14:40.997Z,24.40
2023-02-02T20:15:40.970Z,24.70
2023-02-02T20:16:41.035Z,24.90
2023-02-02T20:17:40.928Z,24.00
2023-02-02T20:18:40.886Z,25.20
2023-02-02T20:19:40.858Z,25.00
2023-02-02T20:20:40.835Z,25.20
2023-02-02T20:21:40.806Z,24.90
2023-02-02T20:22:40.777Z,25.60
2023-02-02T20:23:40.775Z,26.30
2023-02-02T20:24:40.728Z,25.40
2023-02-02T20:25:40.691Z,24.10
2023-02-02T20:26:40.688Z,24.10
2023-02-02T20:27:40.637Z,25.30
2023-02-02T20:28:40.613Z,25.00
2023-02-02T20:29:40.587Z,24.50
2023-02-02T20:30:40.606Z,24.10
2023-02-02T20:31:40.547Z,25.40
2023-02-02T20:32:40.502Z,25.50
2023-02-02T20:33:40.489Z,25.10
2023-02-02T20:34:40.446Z,24.60
2023-02-02T20:35:40.424Z,24.30
2023-02-02T20:36:40.394Z,24.80
2023-02-02T20:37:40.362Z,25.50
2023-02-02T20:38:40.339Z,25.80
2023-02-02T20:39:40.308Z,25.20
2023-02-02T20:40:40.282Z,25.80
2023-02-02T20:41:40.250Z,26.10
2023-02-02T20:42:40.237Z,25.00
2023-02-02T20:43:40.199Z,24.40
2023-02-02T20:44:40.181Z,25.40
2023-02-02T20:45:40.206Z,24.40
2023-02-02T20:46:40.115Z,25.10
2023-02-02T20:47:40.090Z,24.60
2023-02-02T20:48:40.060Z,24.80
2023-02-02T20:49:40.078Z,23.80
2023-02-02T20:50:40.006Z,24.30
2023-02-02T20:51:39.975Z,24.40
2023-02-02T20:52:39.973Z,23.40
2023-02-02T20:53:39.923Z,23.00
2023-02-02T20:54:39.934Z,22.70
2023-02-02T20:55:39.869Z,22.20
2023-02-02T20:56:39.840Z,22.80
2023-02-02T20:57:39.816Z,22.90
2023-02-02T20:58:39.792Z,23.40
2023-02-02T20:59:39.759Z,25.70
2023-02-02T21:00:39.734Z,22.70
2023-02-02T21:01:39.701Z,24.00
2023-02-02T21:02:39.745Z,23.00
2023-02-02T21:03:39.648Z,23.80
2023-02-02T21:04:39.635Z,23.90
2023-02-02T21:05:39.610Z,24.10
2023-02-02T21:06:39.565Z,23.80
2023-02-02T21:07:39.536Z,23.70
2023-02-02T21:08:39.511Z,23.50
2023-02-02T21:09:39.495Z,23.20
2023-02-02T21:10:39.455Z,22.40
2023-02-02T21:11:39.436Z,22.90
2023-02-02T21:12:39.400Z,23.40
2023-02-02T21:13:39.372Z,22.70
2023-02-02T21:14:39.346Z,21.80
2023-02-02T21:15:39.316Z,22.30
2023-02-02T21:16:39.329Z,21.20
2023-02-02T21:17:39.263Z,22.20
2023-02-02T21:18:39.237Z,21.20
2023-02-02T21:19:39.205Z,22.80
2023-02-02T21:20:39.181Z,21.80
2023-02-02T21:21:39.243Z,21.60
2023-02-02T21:22:39.135Z,20.60
2023-02-02T21:23:39.103Z,21.30
2023-02-02T21:24:39.071Z,22.10
2023-02-02T21:25:39.048Z,21.20
2023-02-02T21:26:39.272Z,21.70
2023-02-02T21:27:38.986Z,20.50
2023-02-02T21:28:38.965Z,20.00
2023-02-02T21:29:38.959Z,20.00
2023-02-02T21:30:39.022Z,20.90
2023-02-02T21:31:39.005Z,20.30
2023-02-02T21:32:38.854Z,20.90
2023-02-02T21:33:38.826Z,20.20
2023-02-02T21:34:38.799Z,21.20
2023-02-02T21:35:38.765Z,21.40
2023-02-02T21:36:38.740Z,20.20
2023-02-02T21:37:38.730Z,19.60
2023-02-02T21:38:38.685Z,19.60
2023-02-02T21:39:38.677Z,19.00
2023-02-02T21:40:38.666Z,20.90
2023-02-02T21:41:38.604Z,19.50
2023-02-02T21:42:38.577Z,19.80
2023-02-02T21:43:38.548Z,19.20
2023-02-02T21:44:38.574Z,20.30
2023-02-02T21:45:38.679Z,20.10
2023-02-02T21:46:38.568Z,19.30
2023-02-02T21:47:38.435Z,19.30
2023-02-02T21:48:38.409Z,19.70
2023-02-02T21:49:38.383Z,19.30
2023-02-02T21:50:38.356Z,19.40
2023-02-02T21:51:38.329Z,19.80
2023-02-02T21:52:38.301Z,19.10
2023-02-02T21:53:38.291Z,20.20
2023-02-02T21:54:38.275Z,19.90
2023-02-02T21:55:38.215Z,19.80
2023-02-02T21:56:38.198Z,20.00
2023-02-02T21:57:38.165Z,19.50
2023-02-02T21:58:38.142Z,19.20
2023-02-02T21:59:38.106Z,19.70
2023-02-02T22:00:38.125Z,18.70
2023-02-02T22:01:38.111Z,18.00
2023-02-02T22:02:38.140Z,20.50
2023-02-02T22:03:38.034Z,19.30
2023-02-02T22:04:37.968Z,20.20
2023-02-02T22:05:37.950Z,19.50
2023-02-02T22:06:37.924Z,18.20
2023-02-02T22:07:37.889Z,18.10
2023-02-02T22:08:37.859Z,18.40
2023-02-02T22:09:37.863Z,17.30
2023-02-02T22:10:37.808Z,19.20
2023-02-02T22:11:37.776Z,18.30
2023-02-02T22:12:37.752Z,18.70
2023-02-02T22:13:37.732Z,17.60
2023-02-02T22:14:37.736Z,17.20
2023-02-02T22:15:39.015Z,16.10
2023-02-02T22:16:37.641Z,17.20
2023-02-02T22:17:37.616Z,17.30
2023-02-02T22:18:37.589Z,16.60
2023-02-02T22:19:37.558Z,16.20
2023-02-02T22:20:37.538Z,16.00
2023-02-02T22:21:37.510Z,15.20
2023-02-02T22:22:37.476Z,16.20
2023-02-02T22:23:37.447Z,15.90
2023-02-02T22:24:37.421Z,16.60
2023-02-02T22:25:37.413Z,15.00
2023-02-02T22:26:37.366Z,16.40
2023-02-02T22:27:37.375Z,15.40
2023-02-02T22:28:37.312Z,15.70
2023-02-02T22:29:37.282Z,15.70
2023-02-02T22:30:37.277Z,14.70
2023-02-02T22:31:37.350Z,15.50
2023-02-02T22:32:37.205Z,14.30
2023-02-02T22:33:37.175Z,15.20
2023-02-02T22:34:37.151Z,15.30
2023-02-02T22:35:37.121Z,14.90
2023-02-02T22:36:37.093Z,14.10
2023-02-02T22:37:37.068Z,14.70
2023-02-02T22:38:37.039Z,15.00
2023-02-02T22:39:37.010Z,14.10
2023-02-02T22:40:36.984Z,14.40
2023-02-02T22:41:36.974Z,14.70
2023-02-02T22:42:36.929Z,15.10
2023-02-02T22:43:36.902Z,15.00
2023-02-02T22:44:36.879Z,14.50
2023-02-02T22:45:36.851Z,15.10
2023-02-02T22:46:36.874Z,14.70
2023-02-02T22:47:36.794Z,13.90
2023-02-02T22:48:36.812Z,14.10
2023-02-02T22:49:36.737Z,14.00
2023-02-02T22:50:36.712Z,14.30
2023-02-02T22:51:36.679Z,13.60
2023-02-02T22:52:36.664Z,14.10
2023-02-02T22:53:36.634Z,14.00
2023-02-02T22:54:36.610Z,13.00
2023-02-02T22:55:36.570Z,13.60
2023-02-02T22:56:36.550Z,13.10
2023-02-02T22:57:36.536Z,13.80
2023-02-02T22:58:36.492Z,13.50
2023-02-02T22:59:36.462Z,14.10
2023-02-02T23:00:36.438Z,14.50
2023-02-02T23:01:36.405Z,14.20
2023-02-02T23:02:36.416Z,13.30
2023-02-02T23:03:36.457Z,13.70
2023-02-02T23:04:36.328Z,13.70
2023-02-02T23:05:36.301Z,14.90
2023-02-02T23:06:36.269Z,14.50
2023-02-02T23:07:36.242Z,15.60
2023-02-02T23:08:36.223Z,15.60
2023-02-02T23:09:36.189Z,14.40
2023-02-02T23:10:36.160Z,14.00
2023-02-02T23:11:36.133Z,14.60
2023-02-02T23:12:36.113Z,14.40
2023-02-02T23:13:36.094Z,13.50
2023-02-02T23:14:36.051Z,14.60
2023-02-02T23:15:36.033Z,14.40
2023-02-02T23:16:35.998Z,13.80
2023-02-02T23:17:35.972Z,14.70
2023-02-02T23:18:35.950Z,14.10
2023-02-02T23:19:35.916Z,14.30
2023-02-02T23:20:35.888Z,14.40
2023-02-02T23:21:35.861Z,13.80
2023-02-02T23:22:35.833Z,15.00
2023-02-02T23:23:35.802Z,14.80
2023-02-02T23:24:35.782Z,13.80
2023-02-02T23:25:35.752Z,13.70
2023-02-02T23:26:35.726Z,15.30
2023-02-02T23:27:35.698Z,14.20
2023-02-02T23:28:35.695Z,13.90
2023-02-02T23:29:35.673Z,13.90
2023-02-02T23:30:35.645Z,14.00
2023-02-02T23:31:35.665Z,14.40
2023-02-02T23:32:35.593Z,14.40
2023-02-02T23:33:35.543Z,14.50
2023-02-02T23:34:35.521Z,14.80
2023-02-02T23:35:35.488Z,14.00
2023-02-02T23:36:35.453Z,13.40
2023-02-02T23:37:35.429Z,14.20
2023-02-02T23:38:35.399Z,13.90
2023-02-02T23:39:35.368Z,14.10
2023-02-02T23:40:35.343Z,14.40
2023-02-02T23:41:35.319Z,13.70
2023-02-02T23:42:35.295Z,13.50
2023-02-02T23:43:35.264Z,14.00
2023-02-02T23:44:35.237Z,12.80
2023-02-02T23:45:35.223Z,13.80
2023-02-02T23:46:35.233Z,13.00
2023-02-02T23:47:35.188Z,12.80
2023-02-02T23:48:35.127Z,13.20
2023-02-02T23:49:35.117Z,13.10
2023-02-02T23:50:35.072Z,12.90
2023-02-02T23:51:35.046Z,12.80
2023-02-02T23:52:35.016Z,13.40
2023-02-02T23:53:34.986Z,12.50
2023-02-02T23:54:34.969Z,12.60
2023-02-02T23:55:34.935Z,12.80
2023-02-02T23:56:34.911Z,12.30
2023-02-02T23:57:34.878Z,12.70
2023-02-02T23:58:34.854Z,12.00
2023-02-02T23:59:34.833Z,13.00
